Time;durP1;ratioP1;P1;durP2;ratioP2;P2;SDS_P1;SDS_P2;PMS_P1;PMS_P2;Temp;Humidity;BMP_temperature;BMP_pressure;BME280_temperature;BME280_humidity;BME280_pressure;Samples;Min_cycle;Max_cycle;Signal;HPM_P1;HPM_P2
2022/05/03 03:02:34;;;;;;;21.83;20.13;;;8.50;99.90;;;;;;5170954;23;20720;-74
2022/05/03 03:05:08;;;;;;;34.77;32.40;;;8.40;99.90;;;;;;5017298;28;20269;-73
2022/05/03 03:07:57;;;;;;;39.97;37.27;;;8.50;99.90;;;;;;5017388;28;20669;-73
2022/05/03 03:10:33;;;;;;;17.20;15.80;;;8.40;99.90;;;;;;5020545;28;20303;-72
2022/05/03 03:13:11;;;;;;;19.17;17.67;;;8.30;99.90;;;;;;5001701;28;20188;-71
2022/05/03 03:15:40;;;;;;;25.17;22.97;;;8.20;99.90;;;;;;4991083;23;20237;-79
2022/05/03 03:18:13;;;;;;;29.67;27.67;;;8.20;99.90;;;;;;4955711;28;20201;-77
2022/05/03 03:20:44;;;;;;;18.10;16.50;;;8.20;99.90;;;;;;4956660;29;20208;-78
2022/05/03 03:23:15;;;;;;;28.17;26.17;;;8.10;99.90;;;;;;4957757;28;20180;-77
2022/05/03 03:25:43;;;;;;;18.83;17.27;;;7.90;99.90;;;;;;4955977;28;20213;-77
2022/05/03 03:28:12;;;;;;;19.90;18.30;;;7.90;99.90;;;;;;4955336;29;20638;-78
2022/05/03 03:30:40;;;;;;;51.33;48.43;;;7.80;99.90;;;;;;4956089;28;20200;-78
2022/05/03 03:33:07;;;;;;;20.73;19.13;;;7.80;99.90;;;;;;4957435;28;20628;-77
2022/05/03 03:35:34;;;;;;;21.97;20.23;;;7.90;99.90;;;;;;4955388;28;20717;-78
2022/05/03 03:38:01;;;;;;;24.17;22.27;;;7.90;99.90;;;;;;4954900;28;20650;-71
2022/05/03 03:40:27;;;;;;;26.77;24.87;;;8.00;99.90;;;;;;4946208;28;20228;-69
2022/05/03 03:42:53;;;;;;;26.37;24.53;;;8.10;99.90;;;;;;4953063;28;20237;-70
2022/05/03 03:45:20;;;;;;;33.17;30.80;;;8.10;99.90;;;;;;4956609;28;20695;-71
2022/05/03 03:47:47;;;;;;;28.53;26.53;;;8.10;99.90;;;;;;4954693;28;20213;-71
2022/05/03 03:50:13;;;;;;;34.77;32.47;;;8.10;99.90;;;;;;4954208;29;20205;-69
2022/05/03 03:52:42;;;;;;;19.13;17.60;;;8.10;99.90;;;;;;4952432;28;20182;-76
2022/05/03 03:55:09;;;;;;;17.97;16.37;;;8.10;99.90;;;;;;4951551;28;20210;-76
2022/05/03 03:57:36;;;;;;;17.73;16.00;;;8.00;99.90;;;;;;4953419;28;20200;-75
2022/05/03 04:00:05;;;;;;;16.03;14.57;;;7.90;99.90;;;;;;4957340;29;20610;-77
2022/05/03 04:02:31;;;;;;;18.63;16.70;;;7.90;99.90;;;;;;4954176;29;20669;-77
2022/05/03 04:04:59;;;;;;;19.00;15.60;;;7.80;99.90;;;;;;4952560;28;20206;-77
2022/05/03 04:07:25;;;;;;;14.93;13.53;;;7.80;99.90;;;;;;4954282;28;20200;-77
2022/05/03 04:09:51;;;;;;;15.00;13.50;;;7.70;99.90;;;;;;4953462;28;20189;-77
2022/05/03 04:12:20;;;;;;;16.23;14.60;;;7.70;99.90;;;;;;4954585;29;20539;-77
2022/05/03 04:14:46;;;;;;;21.73;20.03;;;7.60;99.90;;;;;;4953048;28;20303;-77
2022/05/03 04:17:12;;;;;;;25.80;24.10;;;7.60;99.90;;;;;;4953897;29;20193;-77
2022/05/03 04:19:38;;;;;;;25.83;23.83;;;7.70;99.90;;;;;;4957836;28;20971;-77
2022/05/03 04:22:25;;;;;;;24.77;22.63;;;7.70;99.90;;;;;;4953697;29;20178;-77
2022/05/03 04:24:53;;;;;;;24.90;23.10;;;7.70;99.90;;;;;;4954201;28;20208;-77
2022/05/03 04:27:20;;;;;;;24.23;22.40;;;7.70;99.90;;;;;;4953444;28;20211;-76
2022/05/03 04:29:47;;;;;;;27.40;24.93;;;7.80;99.90;;;;;;4952926;29;20186;-77
2022/05/03 04:32:13;;;;;;;27.27;25.20;;;7.80;99.90;;;;;;4954674;28;20192;-76
2022/05/03 04:34:38;;;;;;;31.27;28.80;;;7.90;99.90;;;;;;4955404;28;20288;-76
2022/05/03 04:37:04;;;;;;;15.10;13.70;;;8.00;99.90;;;;;;4952726;29;20208;-78
2022/05/03 04:39:30;;;;;;;15.10;12.93;;;7.90;99.90;;;;;;4952418;28;20189;-77
2022/05/03 04:41:56;;;;;;;13.47;12.00;;;8.00;99.90;;;;;;4954995;29;20563;-76
2022/05/03 04:44:22;;;;;;;15.40;14.00;;;8.00;99.90;;;;;;4954236;29;20241;-76
2022/05/03 04:46:48;;;;;;;14.73;13.53;;;8.10;99.90;;;;;;4953942;29;20240;-77
2022/05/03 04:49:14;;;;;;;16.93;15.50;;;8.10;99.90;;;;;;4954389;29;20717;-76
2022/05/03 04:51:39;;;;;;;19.33;17.47;;;8.10;99.90;;;;;;4954099;29;20606;-76
2022/05/03 04:54:05;;;;;;;30.50;27.53;;;8.20;99.90;;;;;;4938354;29;20237;-76
2022/05/03 04:56:32;;;;;;;29.50;26.57;;;8.30;99.90;;;;;;4937449;29;20286;-76
2022/05/03 04:58:58;;;;;;;24.70;22.47;;;8.40;99.90;;;;;;4934288;29;20241;-77
2022/05/03 05:01:24;;;;;;;16.67;15.07;;;8.50;99.90;;;;;;4941729;29;20179;-75
2022/05/03 05:03:50;;;;;;;15.80;14.40;;;8.70;99.90;;;;;;4957049;28;20205;-75
2022/05/03 05:06:16;;;;;;;19.33;17.50;;;8.90;99.90;;;;;;4956610;28;20210;-76
2022/05/03 05:08:43;;;;;;;23.83;21.83;;;9.20;99.90;;;;;;4954468;29;20669;-76
2022/05/03 05:11:10;;;;;;;29.13;26.97;;;9.50;99.90;;;;;;4958147;28;20177;-76
2022/05/03 05:13:37;;;;;;;16.87;15.23;;;9.90;99.90;;;;;;4954609;28;20217;-76
2022/05/03 05:16:05;;;;;;;15.17;14.07;;;10.40;99.90;;;;;;4954298;28;20283;-76
2022/05/03 05:18:31;;;;;;;15.03;13.83;;;10.90;99.90;;;;;;4954400;28;20649;-77
2022/05/03 05:20:57;;;;;;;42.10;39.70;;;11.20;99.90;;;;;;4953389;28;20188;-77
2022/05/03 05:23:23;;;;;;;31.90;30.10;;;11.50;99.90;;;;;;4952810;28;20192;-77
2022/05/03 05:25:51;;;;;;;14.33;13.00;;;11.90;99.90;;;;;;4955230;28;20264;-78
2022/05/03 05:28:19;;;;;;;13.60;12.27;;;12.30;99.90;;;;;;4955911;28;20210;-77
2022/05/03 05:30:45;;;;;;;22.80;21.23;;;12.80;99.90;;;;;;4954551;28;20178;-77
2022/05/03 05:33:12;;;;;;;17.63;16.40;;;13.00;99.90;;;;;;4953852;28;20630;-77
2022/05/03 05:35:39;;;;;;;14.63;13.63;;;13.20;99.90;;;;;;4952346;28;20586;-77
2022/05/03 05:38:05;;;;;;;16.00;14.87;;;13.50;99.90;;;;;;4952161;29;20672;-77
2022/05/03 05:40:31;;;;;;;11.37;10.37;;;13.80;99.90;;;;;;4953789;29;20268;-77
2022/05/03 05:43:02;;;;;;;10.40;9.60;;;14.10;99.90;;;;;;4953551;28;20563;-76
2022/05/03 05:45:29;;;;;;;10.57;9.63;;;14.30;99.90;;;;;;4953055;28;20296;-77
2022/05/03 05:47:56;;;;;;;11.20;10.07;;;14.00;99.90;;;;;;4953155;29;20236;-76
2022/05/03 05:50:22;;;;;;;12.37;11.10;;;14.20;99.90;;;;;;4952231;28;20197;-76
2022/05/03 05:55:32;;;;;;;12.23;11.33;;;14.10;99.90;;;;;;4953400;28;20206;-76
2022/05/03 05:57:58;;;;;;;15.33;14.27;;;14.40;99.90;;;;;;4951829;29;20708;-76
2022/05/03 06:00:24;;;;;;;11.53;10.57;;;14.40;99.90;;;;;;4951993;29;20196;-77
2022/05/03 06:02:50;;;;;;;12.93;11.93;;;14.70;99.90;;;;;;4953242;29;20212;-77
2022/05/03 06:05:16;;;;;;;18.50;17.00;;;14.90;99.90;;;;;;4953363;28;20213;-77
2022/05/03 06:07:42;;;;;;;19.63;18.33;;;15.30;99.90;;;;;;4955292;29;20184;-77
2022/05/03 06:10:08;;;;;;;22.57;20.87;;;15.30;99.90;;;;;;4953012;29;20185;-77
2022/05/03 06:12:34;;;;;;;15.20;14.07;;;15.60;99.90;;;;;;4952044;28;20652;-77
2022/05/03 06:15:00;;;;;;;11.43;10.63;;;15.80;99.90;;;;;;4952755;28;20230;-77
2022/05/03 06:17:25;;;;;;;10.27;9.47;;;16.00;99.90;;;;;;4952793;29;20174;-77
2022/05/03 06:19:51;;;;;;;23.50;20.83;;;16.40;99.90;;;;;;4953071;29;20237;-77
2022/05/03 06:22:17;;;;;;;33.67;31.63;;;16.90;99.90;;;;;;4953020;29;20182;-78
2022/05/03 06:24:47;;;;;;;26.93;25.27;;;17.30;99.90;;;;;;4953346;28;20205;-76
2022/05/03 06:27:14;;;;;;;17.40;15.97;;;17.60;99.90;;;;;;4952717;28;20192;-76
2022/05/03 06:29:39;;;;;;;18.97;17.67;;;17.30;99.90;;;;;;4951452;28;20177;-76
2022/05/03 06:32:05;;;;;;;18.57;17.23;;;17.00;99.90;;;;;;4952923;28;20198;-76
2022/05/03 06:34:31;;;;;;;12.87;11.87;;;17.10;99.90;;;;;;4955366;29;20209;-76
2022/05/03 06:36:58;;;;;;;10.23;9.53;;;17.20;99.90;;;;;;4955396;28;20192;-77
2022/05/03 06:39:24;;;;;;;11.77;10.87;;;17.80;99.90;;;;;;4955646;29;20188;-77
2022/05/03 06:41:50;;;;;;;15.43;14.40;;;18.30;99.90;;;;;;4956609;28;20194;-77
2022/05/03 06:44:16;;;;;;;19.27;17.93;;;18.90;99.90;;;;;;4955349;28;20202;-77
2022/05/03 06:46:42;;;;;;;18.27;17.03;;;19.10;99.90;;;;;;4956616;28;20248;-76
2022/05/03 06:49:10;;;;;;;17.87;16.67;;;19.20;99.90;;;;;;4939349;29;20182;-77
2022/05/03 06:51:38;;;;;;;14.67;13.50;;;19.60;99.90;;;;;;4955500;28;20317;-77
2022/05/03 06:54:03;;;;;;;11.97;11.07;;;19.80;99.90;;;;;;4955497;28;20197;-77
2022/05/03 06:56:35;;;;;;;11.57;10.67;;;19.60;99.90;;;;;;4956694;29;20608;-77
2022/05/03 06:59:06;;;;;;;12.53;11.33;;;19.30;99.90;;;;;;4955547;29;20205;-76
2022/05/03 07:01:32;;;;;;;12.43;11.40;;;19.40;99.90;;;;;;4956769;28;20182;-75
2022/05/03 07:03:58;;;;;;;12.47;11.57;;;19.60;99.90;;;;;;4957446;28;20202;-76
2022/05/03 07:06:24;;;;;;;10.90;9.90;;;19.50;99.90;;;;;;4955185;29;20240;-76
2022/05/03 07:08:50;;;;;;;10.47;9.57;;;20.00;99.90;;;;;;4955712;29;20566;-76
2022/05/03 07:11:15;;;;;;;10.50;8.90;;;20.30;99.90;;;;;;4956679;29;20201;-75
2022/05/03 07:13:41;;;;;;;10.27;9.43;;;19.80;99.90;;;;;;4954529;28;20264;-75
2022/05/03 07:16:07;;;;;;;14.55;9.55;;;19.60;99.90;;;;;;4956579;29;20274;-76
2022/05/03 07:24:02;;;;;;;9.90;9.10;;;19.90;99.90;;;;;;4956509;29;20693;-75
2022/05/03 07:26:27;;;;;;;10.73;9.67;;;19.90;99.90;;;;;;4954635;29;20213;-75
2022/05/03 07:28:53;;;;;;;11.83;10.50;;;19.70;99.90;;;;;;4954657;29;20182;-76
2022/05/03 07:31:20;;;;;;;11.47;10.63;;;19.60;99.90;;;;;;4955046;28;20181;-75
2022/05/03 07:33:47;;;;;;;11.00;10.03;;;19.90;99.90;;;;;;4954594;28;20182;-76
2022/05/03 07:36:13;;;;;;;10.90;10.00;;;20.40;99.90;;;;;;4954667;29;20192;-75
2022/05/03 07:38:40;;;;;;;12.30;11.48;;;21.10;99.90;;;;;;4954303;28;20206;-74
2022/05/03 07:41:06;;;;;;;12.38;11.45;;;20.80;99.90;;;;;;4954340;28;20196;-74
2022/05/03 07:43:33;;;;;;;13.35;12.30;;;20.90;99.90;;;;;;4953549;28;20646;-75
2022/05/03 07:45:59;;;;;;;13.23;12.07;;;21.10;99.90;;;;;;4954498;28;20235;-77
2022/05/03 07:48:25;;;;;;;10.65;9.73;;;21.60;99.90;;;;;;4955282;28;20190;-76
2022/05/03 07:50:51;;;;;;;10.40;9.65;;;22.00;99.90;;;;;;4955808;29;20209;-76
2022/05/03 07:53:17;;;;;;;9.98;9.07;;;22.40;98.10;;;;;;4955795;29;20186;-77
2022/05/03 07:55:47;;;;;;;9.88;9.07;;;22.10;98.70;;;;;;4956944;29;20204;-76
2022/05/03 07:58:15;;;;;;;9.27;8.65;;;22.50;98.20;;;;;;4939539;29;20209;-76
2022/05/03 08:00:41;;;;;;;8.80;8.10;;;22.70;96.90;;;;;;4941687;28;20197;-76
2022/05/03 08:03:07;;;;;;;9.93;9.05;;;22.60;96.30;;;;;;4940340;29;20663;-79
2022/05/03 08:05:33;;;;;;;8.60;8.00;;;22.40;97.40;;;;;;4938610;29;20225;-77
2022/05/03 08:07:59;;;;;;;8.45;7.85;;;22.70;96.40;;;;;;4939985;28;20200;-76
2022/05/03 08:10:24;;;;;;;10.88;8.48;;;22.70;96.80;;;;;;4941205;29;20260;-76
2022/05/03 08:12:51;;;;;;;9.75;8.85;;;22.50;96.90;;;;;;4954128;29;20186;-77
2022/05/03 08:15:18;;;;;;;9.45;8.85;;;22.30;96.90;;;;;;4955370;28;20641;-76
2022/05/03 08:17:44;;;;;;;12.30;11.13;;;22.10;97.00;;;;;;4953644;29;20681;-77
2022/05/03 08:20:11;;;;;;;10.45;9.75;;;22.10;96.60;;;;;;4954026;28;20189;-77
2022/05/03 08:22:36;;;;;;;9.68;8.70;;;21.90;96.70;;;;;;4955089;28;20189;-77
2022/05/03 08:25:03;;;;;;;9.40;8.70;;;21.60;96.90;;;;;;4953379;29;20194;-76
2022/05/03 08:27:30;;;;;;;8.93;8.32;;;21.70;96.90;;;;;;4954957;28;20178;-77
2022/05/03 08:29:56;;;;;;;7.13;6.60;;;21.70;96.20;;;;;;4953794;29;20182;-76
2022/05/03 08:32:22;;;;;;;7.70;7.20;;;22.10;92.90;;;;;;4955628;29;20186;-76
2022/05/03 08:34:48;;;;;;;7.70;7.20;;;22.30;94.40;;;;;;4956852;28;20197;-77
2022/05/03 08:42:42;;;;;;;6.90;6.40;;;23.40;91.40;;;;;;4954971;29;20181;-77
2022/05/03 08:45:09;;;;;;;10.25;9.75;;;23.40;90.80;;;;;;4953395;29;20205;-76
2022/05/03 08:47:37;;;;;;;14.07;13.18;;;23.30;86.50;;;;;;4954382;29;20189;-76
2022/05/03 08:50:12;;;;;;;14.38;13.57;;;23.10;85.90;;;;;;4953682;28;20585;-76
2022/05/03 08:52:57;;;;;;;11.98;11.27;;;23.40;84.80;;;;;;4954562;28;20240;-76
2022/05/03 08:55:23;;;;;;;11.73;11.05;;;23.50;85.50;;;;;;4951973;28;20206;-76
2022/05/03 08:57:50;;;;;;;11.02;10.20;;;23.70;86.40;;;;;;4954151;29;20620;-76
2022/05/03 09:00:17;;;;;;;10.73;10.07;;;24.00;84.70;;;;;;4954548;29;20189;-76
2022/05/03 09:02:48;;;;;;;10.93;10.27;;;24.00;83.00;;;;;;4954094;28;20186;-76
2022/05/03 09:05:14;;;;;;;9.98;9.30;;;23.90;82.40;;;;;;4954330;28;20313;-77
2022/05/03 09:08:01;;;;;;;10.52;9.93;;;23.90;84.40;;;;;;4968755;28;20182;-76
2022/05/03 09:10:28;;;;;;;9.23;8.50;;;24.50;85.00;;;;;;4953863;29;20181;-76
2022/05/03 09:12:55;;;;;;;6.20;5.80;;;25.80;77.20;;;;;;4954473;28;20186;-75
2022/05/03 09:15:34;;;;;;;5.43;5.13;;;26.40;74.30;;;;;;4953612;28;20218;-74
2022/05/03 09:18:00;;;;;;;6.03;5.63;;;26.90;70.40;;;;;;4953698;28;20268;-74
2022/05/03 09:26:13;;;;;;;5.97;5.50;;;27.80;66.60;;;;;;4953358;29;20240;-75
2022/05/03 09:28:52;;;;;;;7.13;6.63;;;27.50;66.00;;;;;;4953483;29;20189;-75
2022/05/03 09:31:46;;;;;;;8.40;7.93;;;26.90;65.50;;;;;;4952758;28;20182;-75
2022/05/03 09:34:18;;;;;;;9.43;8.93;;;26.60;67.60;;;;;;4953421;28;20269;-75
2022/05/03 09:36:46;;;;;;;11.52;10.88;;;26.60;68.00;;;;;;4953651;28;20189;-74
2022/05/03 09:39:22;;;;;;;11.30;10.60;;;26.30;67.60;;;;;;4953076;28;20732;-74
2022/05/03 09:42:14;;;;;;;9.32;8.85;;;26.60;67.60;;;;;;4952336;28;20185;-74
2022/05/03 09:44:54;;;;;;;7.10;6.70;;;26.70;67.50;;;;;;4953297;29;20206;-75
2022/05/03 09:47:25;;;;;;;11.52;10.70;;;26.00;67.60;;;;;;4952474;29;20193;-74
2022/05/03 09:49:50;;;;;;;9.60;9.02;;;25.50;68.20;;;;;;4953538;28;20213;-74
2022/05/03 09:52:28;;;;;;;10.40;9.80;;;25.70;65.10;;;;;;4952145;29;20198;-75
2022/05/03 09:54:59;;;;;;;6.00;5.70;;;26.40;66.60;;;;;;4953223;28;20225;-75
2022/05/03 09:57:27;;;;;;;5.35;4.97;;;27.10;63.00;;;;;;4952759;29;20650;-73
2022/05/03 09:59:55;;;;;;;5.53;5.18;;;27.20;61.10;;;;;;4953206;28;20178;-74
2022/05/03 10:02:24;;;;;;;5.55;5.15;;;27.60;58.70;;;;;;4953148;28;20213;-74
2022/05/03 10:04:52;;;;;;;5.20;4.80;;;27.90;59.40;;;;;;4953003;28;20209;-74
2022/05/03 10:07:20;;;;;;;4.88;4.60;;;27.80;57.50;;;;;;4952335;28;20204;-74
2022/05/03 10:09:46;;;;;;;4.88;4.43;;;27.10;60.40;;;;;;4953192;29;20241;-73
2022/05/03 10:12:14;;;;;;;5.22;4.88;;;26.30;61.40;;;;;;4953001;28;20177;-73
2022/05/03 10:14:44;;;;;;;8.73;8.27;;;25.50;63.80;;;;;;4954542;29;20209;-73
2022/05/03 10:22:48;;;;;;;5.50;5.20;;;25.70;64.60;;;;;;4952637;28;20208;-73
2022/05/03 10:25:15;;;;;;;5.53;5.22;;;27.00;62.10;;;;;;4952702;28;20213;-73
2022/05/03 10:27:55;;;;;;;4.70;4.32;;;27.20;60.60;;;;;;4952504;28;20186;-68
2022/05/03 10:30:23;;;;;;;4.90;4.50;;;27.70;57.90;;;;;;4952862;28;20238;-69
2022/05/03 10:33:20;;;;;;;5.10;4.70;;;28.50;59.60;;;;;;4952770;28;20554;-68
2022/05/03 10:35:50;;;;;;;4.80;4.40;;;27.60;58.80;;;;;;4952792;28;20209;-74
2022/05/03 10:38:34;;;;;;;5.40;4.90;;;26.50;59.50;;;;;;4952433;29;20193;-74
2022/05/03 10:40:59;;;;;;;5.43;5.13;;;26.00;58.50;;;;;;4952795;29;20182;-74
2022/05/03 10:43:27;;;;;;;4.25;4.05;;;26.10;58.20;;;;;;4952663;29;20706;-74
2022/05/03 10:46:13;;;;;;;4.53;4.28;;;25.90;58.80;;;;;;4951387;28;20217;-74
2022/05/03 10:48:43;;;;;;;5.38;4.88;;;26.30;59.60;;;;;;4954486;29;20184;-74
2022/05/03 10:51:11;;;;;;;6.70;6.18;;;26.50;58.00;;;;;;4958556;29;20513;-74
2022/05/03 10:53:41;;;;;;;5.45;5.15;;;25.70;58.30;;;;;;4955813;29;20248;-75
2022/05/03 10:56:22;;;;;;;5.60;5.30;;;25.10;60.30;;;;;;4952770;29;20188;-75
2022/05/03 10:59:10;;;;;;;5.85;5.30;;;25.60;58.30;;;;;;4955344;29;20221;-74
2022/05/03 11:01:57;;;;;;;5.35;4.90;;;25.70;58.30;;;;;;4956805;28;20228;-74
2022/05/03 11:04:25;;;;;;;4.70;4.30;;;25.40;59.80;;;;;;4952818;29;20209;-74
2022/05/03 11:06:51;;;;;;;4.88;4.68;;;25.30;59.90;;;;;;4952411;29;20639;-74
2022/05/03 11:09:28;;;;;;;5.05;4.80;;;25.20;61.00;;;;;;4952787;29;20201;-77
2022/05/03 11:11:56;;;;;;;5.53;5.00;;;25.10;60.60;;;;;;4953125;29;20661;-79
2022/05/03 11:14:22;;;;;;;6.43;6.03;;;25.00;61.50;;;;;;4951877;29;20213;-73
2022/05/03 11:17:07;;;;;;;6.28;5.88;;;24.90;61.90;;;;;;4951187;29;20193;-74
2022/05/03 11:19:37;;;;;;;6.70;6.20;;;25.10;62.10;;;;;;4953972;28;20551;-73
2022/05/03 11:22:09;;;;;;;7.47;6.97;;;25.30;61.50;;;;;;4955930;29;20189;-73
2022/05/03 11:24:41;;;;;;;5.47;5.18;;;26.10;61.80;;;;;;4956106;28;20585;-73
2022/05/03 11:27:09;;;;;;;6.13;5.63;;;26.20;58.50;;;;;;4955542;28;20221;-73
2022/05/03 11:29:41;;;;;;;5.90;5.47;;;25.70;58.70;;;;;;4970667;28;20186;-74
2022/05/03 11:32:07;;;;;;;5.97;5.57;;;25.30;60.10;;;;;;4966744;28;20189;-74
2022/05/03 11:34:34;;;;;;;6.20;5.78;;;25.30;60.50;;;;;;4954771;28;20669;-74
2022/05/03 11:37:02;;;;;;;5.97;5.57;;;25.50;59.60;;;;;;4954189;29;20740;-74
2022/05/03 11:39:28;;;;;;;6.15;5.68;;;25.50;59.20;;;;;;4954505;29;20189;-74
2022/05/03 11:41:55;;;;;;;5.43;5.05;;;25.90;60.90;;;;;;4955971;29;20190;-74
2022/05/03 11:44:21;;;;;;;6.68;5.25;;;26.90;57.40;;;;;;4955463;29;20209;-74
2022/05/03 11:46:48;;;;;;;8.05;5.25;;;27.50;58.80;;;;;;4954998;29;20660;-74
2022/05/03 11:49:16;;;;;;;5.35;4.95;;;28.20;56.30;;;;;;4955070;29;20669;-74
2022/05/03 11:57:32;;;;;;;6.15;5.75;;;28.30;55.60;;;;;;4955260;29;20193;-73
2022/05/03 12:00:00;;;;;;;6.88;5.45;;;28.40;53.40;;;;;;4955292;28;20240;-73
2022/05/03 12:02:27;;;;;;;5.03;4.65;;;27.80;53.60;;;;;;4955716;28;20589;-75
2022/05/03 12:05:06;;;;;;;5.53;5.22;;;27.00;54.70;;;;;;4953634;28;20201;-76
2022/05/03 12:07:42;;;;;;;5.28;4.97;;;26.50;55.60;;;;;;4954651;29;20244;-76
2022/05/03 12:10:20;;;;;;;4.20;4.03;;;26.10;56.30;;;;;;4953533;29;20189;-75
2022/05/03 12:13:02;;;;;;;5.40;4.97;;;26.00;56.00;;;;;;4954964;29;20185;-75
2022/05/03 12:15:28;;;;;;;6.63;5.85;;;25.20;60.40;;;;;;4954594;29;20642;-75
2022/05/03 12:17:58;;;;;;;6.53;5.70;;;25.10;62.10;;;;;;4954526;29;20196;-73
2022/05/03 12:20:24;;;;;;;6.65;6.15;;;25.60;61.60;;;;;;4954910;28;20273;-71
2022/05/03 12:23:09;;;;;;;8.27;7.57;;;25.90;63.10;;;;;;4953513;29;20186;-71
2022/05/03 12:25:37;;;;;;;7.70;7.30;;;26.30;64.30;;;;;;4954549;28;20217;-73
2022/05/03 12:28:05;;;;;;;9.45;8.73;;;26.00;65.80;;;;;;4954313;28;20205;-72
2022/05/03 12:30:31;;;;;;;10.27;9.70;;;23.60;71.30;;;;;;4954664;28;20189;-73
2022/05/03 12:33:05;;;;;;;14.43;13.43;;;21.90;76.20;;;;;;4958962;28;20189;-72
2022/05/03 12:35:33;;;;;;;7.63;7.10;;;20.60;91.60;;;;;;4935350;28;20214;-72
2022/05/03 12:38:18;;;;;;;8.50;8.00;;;20.10;96.30;;;;;;4934864;29;20186;-72
2022/05/03 12:40:51;;;;;;;23.77;22.30;;;19.50;99.90;;;;;;4935435;29;20666;-72
2022/05/03 12:43:19;;;;;;;7.37;6.87;;;19.00;99.90;;;;;;4936876;28;20186;-72
2022/05/03 12:46:15;;;;;;;8.50;8.00;;;18.60;99.90;;;;;;4935512;29;20206;-72
2022/05/03 12:48:41;;;;;;;7.33;6.63;;;18.50;99.90;;;;;;4914187;29;20190;-72
2022/05/03 12:51:07;;;;;;;8.37;7.87;;;18.60;99.90;;;;;;4944249;29;20174;-72
2022/05/03 12:53:35;;;;;;;6.63;6.13;;;18.80;99.90;;;;;;4954239;28;20228;-72
2022/05/03 12:58:47;;;;;;;9.87;9.27;;;19.20;99.90;;;;;;4953603;29;20200;-72
2022/05/03 13:01:14;;;;;;;9.23;8.17;;;19.20;99.90;;;;;;4952437;29;20181;-72
2022/05/03 13:03:46;;;;;;;12.53;11.77;;;19.70;99.90;;;;;;4953872;29;20193;-72
2022/05/03 13:06:12;;;;;;;19.13;18.13;;;19.60;99.90;;;;;;4954055;28;20312;-76
2022/05/03 13:08:38;;;;;;;16.00;14.83;;;19.30;99.90;;;;;;4953444;28;20313;-72
2022/05/03 13:11:03;;;;;;;9.23;8.40;;;19.00;99.90;;;;;;4954025;29;20737;-72
2022/05/03 13:13:29;;;;;;;6.80;6.27;;;18.60;99.90;;;;;;4953997;29;20216;-72
2022/05/03 13:15:55;;;;;;;8.23;7.70;;;18.30;99.90;;;;;;4953254;29;20224;-72
2022/05/03 13:18:21;;;;;;;8.13;7.73;;;18.10;99.90;;;;;;4953874;29;20774;-72
2022/05/03 13:20:46;;;;;;;8.20;7.70;;;17.90;99.90;;;;;;4953919;29;20264;-72
2022/05/03 13:23:14;;;;;;;9.03;8.43;;;17.70;99.90;;;;;;4952642;28;20186;-73
2022/05/03 13:25:40;;;;;;;8.17;6.60;;;17.60;99.90;;;;;;4968622;28;20249;-72
2022/05/03 13:28:06;;;;;;;8.00;7.13;;;17.50;99.90;;;;;;4953541;29;20233;-73
2022/05/03 13:30:33;;;;;;;7.07;6.47;;;17.40;99.90;;;;;;4953315;28;20202;-73
2022/05/03 13:32:59;;;;;;;10.37;7.93;;;17.60;99.90;;;;;;4953960;29;20185;-73
2022/05/03 13:40:56;;;;;;;34.27;32.13;;;17.30;99.90;;;;;;4967304;28;20186;-80
2022/05/03 13:43:22;;;;;;;28.13;26.50;;;17.20;99.90;;;;;;4961633;28;20192;-78
2022/05/03 13:45:49;;;;;;;49.80;47.07;;;17.40;99.90;;;;;;4975785;28;20221;-77
2022/05/03 13:48:16;;;;;;;31.30;29.53;;;17.60;99.90;;;;;;4962510;28;20178;-77
2022/05/03 13:50:42;;;;;;;65.37;61.77;;;18.00;99.90;;;;;;4961690;28;20185;-78
2022/05/03 13:53:09;;;;;;;12.90;11.83;;;19.00;99.90;;;;;;4961012;28;20306;-78
2022/05/03 13:55:38;;;;;;;19.27;17.77;;;20.30;99.90;;;;;;4959904;28;20206;-79
2022/05/03 13:58:09;;;;;;;21.03;19.83;;;21.80;99.90;;;;;;4959326;28;20248;-79
2022/05/03 14:00:37;;;;;;;12.98;11.90;;;23.20;99.90;;;;;;4961028;28;20281;-79
2022/05/03 14:03:04;;;;;;;33.13;31.30;;;24.30;99.90;;;;;;4977047;28;20829;-80
2022/05/03 14:05:30;;;;;;;16.33;15.25;;;24.60;99.90;;;;;;4977527;28;20673;-77
2022/05/03 14:07:55;;;;;;;6.65;6.15;;;24.10;99.90;;;;;;4947782;28;20183;-77
2022/05/03 14:10:21;;;;;;;6.75;6.30;;;23.40;99.90;;;;;;4934455;29;20194;-77
2022/05/03 14:12:47;;;;;;;8.55;6.53;;;23.70;99.90;;;;;;4940444;28;20205;-77
2022/05/03 14:15:13;;;;;;;6.47;5.90;;;25.40;99.90;;;;;;4947949;28;20249;-78
2022/05/03 14:17:40;;;;;;;18.08;17.08;;;26.50;99.90;;;;;;4949744;28;20550;-76
2022/05/03 14:20:06;;;;;;;29.25;27.67;;;27.60;97.80;;;;;;4953057;29;20185;-76
2022/05/03 14:22:32;;;;;;;9.55;8.88;;;28.00;91.20;;;;;;4952307;29;20645;-77
2022/05/03 14:24:58;;;;;;;6.97;6.43;;;28.30;92.70;;;;;;4951967;28;20216;-77
2022/05/03 14:27:24;;;;;;;6.70;6.20;;;29.00;87.90;;;;;;4951623;28;20292;-77
2022/05/03 14:29:49;;;;;;;5.82;5.43;;;29.80;81.50;;;;;;4952825;29;20192;-77
2022/05/03 14:32:15;;;;;;;5.35;4.93;;;29.50;76.60;;;;;;4953226;29;20217;-77
2022/05/03 14:34:42;;;;;;;7.07;6.28;;;29.40;74.20;;;;;;4952131;29;20205;-77
2022/05/03 14:37:08;;;;;;;6.57;5.97;;;29.80;75.30;;;;;;4953077;29;20186;-77
2022/05/03 14:39:34;;;;;;;6.38;5.63;;;29.70;70.80;;;;;;4953575;29;20196;-77
2022/05/03 14:42:04;;;;;;;7.13;6.82;;;30.00;70.00;;;;;;4953386;29;20280;-77
2022/05/03 14:44:31;;;;;;;5.97;5.57;;;30.30;66.50;;;;;;4952775;28;20244;-77
2022/05/03 14:46:57;;;;;;;4.25;4.00;;;30.40;64.00;;;;;;4952833;28;20209;-77
2022/05/03 14:49:23;;;;;;;4.80;4.35;;;31.40;58.00;;;;;;4953304;29;20181;-77
2022/05/03 14:51:49;;;;;;;5.28;4.78;;;32.00;52.90;;;;;;4956576;29;20189;-77
2022/05/03 14:54:15;;;;;;;7.10;6.72;;;32.00;53.40;;;;;;4953472;28;20209;-77
2022/05/03 15:04:59;;;;;;;5.82;5.53;;;31.00;48.60;;;;;;4956298;29;20634;-77
2022/05/03 15:07:24;;;;;;;6.50;6.00;;;30.70;49.10;;;;;;4954569;29;20209;-77
2022/05/03 15:09:50;;;;;;;7.68;7.22;;;30.50;49.80;;;;;;4956390;29;20245;-76
2022/05/03 15:12:18;;;;;;;5.30;4.93;;;30.10;51.00;;;;;;4956113;28;20737;-76
2022/05/03 15:14:44;;;;;;;5.57;5.18;;;29.90;50.90;;;;;;4975403;23;20237;-78
2022/05/03 15:17:10;;;;;;;6.45;4.93;;;30.20;50.70;;;;;;4957268;28;20638;-78
2022/05/03 15:19:35;;;;;;;6.38;6.03;;;30.40;50.20;;;;;;4957289;28;20193;-78
2022/05/03 15:22:01;;;;;;;4.82;4.53;;;30.10;49.20;;;;;;4960181;28;20189;-77
2022/05/03 15:24:36;;;;;;;7.28;5.35;;;29.90;51.30;;;;;;4963263;28;20202;-76
2022/05/03 15:27:11;;;;;;;5.75;5.45;;;30.10;49.40;;;;;;4960581;29;20432;-77
2022/05/03 15:29:38;;;;;;;6.47;5.97;;;31.10;46.60;;;;;;4963222;29;20185;-77
2022/05/03 15:32:28;;;;;;;5.53;5.13;;;31.00;46.50;;;;;;4959945;29;20177;-79
2022/05/03 15:34:55;;;;;;;5.00;4.60;;;30.90;45.90;;;;;;4956688;29;20293;-78
2022/05/03 15:37:21;;;;;;;4.80;4.45;;;30.90;45.30;;;;;;4956384;29;20185;-79
2022/05/03 15:39:47;;;;;;;5.78;5.38;;;30.90;45.50;;;;;;4956534;29;20647;-79
2022/05/03 15:42:13;;;;;;;9.13;8.63;;;30.80;43.30;;;;;;4957109;29;20189;-79
2022/05/03 15:44:39;;;;;;;9.23;8.82;;;31.00;42.50;;;;;;4956455;28;20202;-77
2022/05/03 15:47:05;;;;;;;9.00;8.40;;;31.00;43.10;;;;;;4955170;29;20248;-80
2022/05/03 15:49:35;;;;;;;6.70;6.40;;;31.10;42.90;;;;;;4956380;29;20182;-77
2022/05/03 15:52:01;;;;;;;4.93;4.55;;;31.30;41.20;;;;;;4956334;28;20272;-77
2022/05/03 15:54:29;;;;;;;5.22;4.93;;;31.10;42.20;;;;;;4956456;28;20201;-77
2022/05/03 15:56:54;;;;;;;3.53;3.42;;;31.60;40.90;;;;;;4955602;28;20658;-77
2022/05/03 15:59:20;;;;;;;3.63;3.42;;;31.40;39.90;;;;;;4958968;29;20178;-75
2022/05/03 16:01:46;;;;;;;5.28;4.95;;;30.20;41.90;;;;;;4959104;29;20563;-75
2022/05/03 16:04:12;;;;;;;3.40;3.30;;;30.10;44.10;;;;;;4960186;28;20186;-76
2022/05/03 16:06:38;;;;;;;6.43;6.13;;;30.60;40.90;;;;;;4954653;29;20638;-77
2022/05/03 16:09:07;;;;;;;22.52;21.45;;;29.60;42.40;;;;;;4955191;29;20182;-79
2022/05/03 16:11:33;;;;;;;18.27;17.30;;;28.20;44.30;;;;;;4955353;28;20174;-77
2022/05/03 16:13:59;;;;;;;17.45;16.23;;;27.30;46.00;;;;;;4955557;28;20182;-77
2022/05/03 16:16:26;;;;;;;13.88;13.23;;;27.10;46.60;;;;;;4957235;29;20679;-77
2022/05/03 16:18:51;;;;;;;12.40;11.80;;;27.10;47.10;;;;;;4957393;29;20273;-77
2022/05/03 16:21:17;;;;;;;13.38;12.68;;;27.50;46.30;;;;;;4963142;29;20216;-76
2022/05/03 16:23:43;;;;;;;13.63;12.82;;;27.90;45.30;;;;;;4961185;28;20186;-76
2022/05/03 16:26:09;;;;;;;12.68;11.98;;;27.80;46.10;;;;;;4957572;28;20221;-77
2022/05/03 16:28:35;;;;;;;12.65;11.95;;;28.00;45.10;;;;;;4957008;29;20640;-77
2022/05/03 16:31:01;;;;;;;16.50;15.43;;;28.20;45.60;;;;;;4960019;29;20181;-77
2022/05/03 16:33:27;;;;;;;14.70;13.90;;;28.70;44.00;;;;;;4971577;28;20563;-76